ルクソール の空港の天気 - METARとTAF

ルクソール国際空港 ( HELX / LXR ) - エジプト ルクソール
飛行場実況気象(Metar)
観測時間06/24 11:00 EET (06/24 09:00 UTC)
風向・風速北 2m/s
視程10km以上
天気現象
なし
気温37℃
湿度31%
気圧1006hPa
METARHELX 240900Z 35003KT CAVOK 37/17 Q1006 NOSIG
過去の天気等 Google飛行場航空写真 Wunderground天気予報

過去48時間のMETAR

飛行場予報(TAF)
発表時間: 6/24 07:05 EET (6/24 05:05 UTC)
予報対象時間: 24日8時 EET ~ 25日14時 EET
風向・風速西 4m/s
視程10km以上
なし
TAF HELX 240505Z 2406/2512 28008KT CAVOK